sensor_id;sensor_type;location;lat;lon;timestamp;temperature;humidity
28484;DHT22;15704;48.834;8.736;2023-09-19T00:00:07;16.30;99.90
28484;DHT22;15704;48.834;8.736;2023-09-19T00:02:34;16.30;99.90
28484;DHT22;15704;48.834;8.736;2023-09-19T00:05:00;16.30;99.90
28484;DHT22;15704;48.834;8.736;2023-09-19T00:07:31;16.20;99.90
28484;DHT22;15704;48.834;8.736;2023-09-19T00:09:58;16.20;99.90
28484;DHT22;15704;48.834;8.736;2023-09-19T00:12:25;16.10;99.90
28484;DHT22;15704;48.834;8.736;2023-09-19T00:14:51;16.10;99.90
28484;DHT22;15704;48.834;8.736;2023-09-19T00:17:19;16.10;99.90
28484;DHT22;15704;48.834;8.736;2023-09-19T00:19:46;16.10;99.90
28484;DHT22;15704;48.834;8.736;2023-09-19T00:22:12;16.10;99.90
28484;DHT22;15704;48.834;8.736;2023-09-19T00:24:39;16.00;99.90
28484;DHT22;15704;48.834;8.736;2023-09-19T00:27:07;16.00;99.90
28484;DHT22;15704;48.834;8.736;2023-09-19T00:29:35;16.00;99.90
28484;DHT22;15704;48.834;8.736;2023-09-19T00:32:02;16.00;99.90
28484;DHT22;15704;48.834;8.736;2023-09-19T00:34:31;16.00;99.90
28484;DHT22;15704;48.834;8.736;2023-09-19T00:37:01;16.00;99.90
28484;DHT22;15704;48.834;8.736;2023-09-19T00:39:27;16.00;99.90
28484;DHT22;15704;48.834;8.736;2023-09-19T00:41:54;16.00;99.90
28484;DHT22;15704;48.834;8.736;2023-09-19T00:44:21;16.00;99.90
28484;DHT22;15704;48.834;8.736;2023-09-19T00:46:50;16.00;99.90
28484;DHT22;15704;48.834;8.736;2023-09-19T00:49:17;16.00;99.90
28484;DHT22;15704;48.834;8.736;2023-09-19T00:51:44;16.00;99.90
28484;DHT22;15704;48.834;8.736;2023-09-19T00:54:13;16.00;99.90
28484;DHT22;15704;48.834;8.736;2023-09-19T00:56:45;15.90;99.90
28484;DHT22;15704;48.834;8.736;2023-09-19T00:59:12;15.90;99.90
28484;DHT22;15704;48.834;8.736;2023-09-19T01:01:39;15.90;99.90
28484;DHT22;15704;48.834;8.736;2023-09-19T01:04:06;15.80;99.90
28484;DHT22;15704;48.834;8.736;2023-09-19T01:06:34;15.80;99.90
28484;DHT22;15704;48.834;8.736;2023-09-19T01:09:03;15.80;99.90
28484;DHT22;15704;48.834;8.736;2023-09-19T01:11:40;15.80;99.90
28484;DHT22;15704;48.834;8.736;2023-09-19T01:17:03;15.70;99.90
28484;DHT22;15704;48.834;8.736;2023-09-19T01:30:32;15.40;99.90
28484;DHT22;15704;48.834;8.736;2023-09-19T01:33:02;15.40;99.90
28484;DHT22;15704;48.834;8.736;2023-09-19T01:35:33;15.30;99.90
28484;DHT22;15704;48.834;8.736;2023-09-19T01:38:00;15.30;99.90
28484;DHT22;15704;48.834;8.736;2023-09-19T01:40:27;15.30;99.90
28484;DHT22;15704;48.834;8.736;2023-09-19T01:48:41;15.30;99.90
28484;DHT22;15704;48.834;8.736;2023-09-19T01:51:18;15.40;99.90
28484;DHT22;15704;48.834;8.736;2023-09-19T01:54:02;15.40;99.90
28484;DHT22;15704;48.834;8.736;2023-09-19T01:56:57;15.40;99.90
28484;DHT22;15704;48.834;8.736;2023-09-19T01:59:34;15.30;99.90
28484;DHT22;15704;48.834;8.736;2023-09-19T02:02:02;15.40;99.90
28484;DHT22;15704;48.834;8.736;2023-09-19T02:04:30;15.40;99.90
28484;DHT22;15704;48.834;8.736;2023-09-19T02:06:59;15.40;99.90
28484;DHT22;15704;48.834;8.736;2023-09-19T02:09:27;15.50;99.90
28484;DHT22;15704;48.834;8.736;2023-09-19T02:11:54;15.70;99.90
28484;DHT22;15704;48.834;8.736;2023-09-19T02:14:22;15.70;99.90
28484;DHT22;15704;48.834;8.736;2023-09-19T02:16:49;15.80;99.90
28484;DHT22;15704;48.834;8.736;2023-09-19T02:19:17;15.80;99.90
28484;DHT22;15704;48.834;8.736;2023-09-19T02:21:44;15.90;99.90
28484;DHT22;15704;48.834;8.736;2023-09-19T02:24:11;15.90;99.90
28484;DHT22;15704;48.834;8.736;2023-09-19T02:26:39;16.00;99.90
28484;DHT22;15704;48.834;8.736;2023-09-19T02:29:05;16.00;99.90
28484;DHT22;15704;48.834;8.736;2023-09-19T02:31:32;16.10;99.90
28484;DHT22;15704;48.834;8.736;2023-09-19T02:33:59;16.20;99.90
28484;DHT22;15704;48.834;8.736;2023-09-19T02:36:26;16.20;99.90
28484;DHT22;15704;48.834;8.736;2023-09-19T02:38:53;16.20;99.90
28484;DHT22;15704;48.834;8.736;2023-09-19T02:41:20;16.20;99.90
28484;DHT22;15704;48.834;8.736;2023-09-19T02:43:47;16.20;99.90
28484;DHT22;15704;48.834;8.736;2023-09-19T02:46:14;16.20;99.90
28484;DHT22;15704;48.834;8.736;2023-09-19T02:48:41;16.30;99.90
28484;DHT22;15704;48.834;8.736;2023-09-19T02:51:08;16.30;99.90
28484;DHT22;15704;48.834;8.736;2023-09-19T02:53:35;16.30;99.90
28484;DHT22;15704;48.834;8.736;2023-09-19T02:56:02;16.30;99.90
28484;DHT22;15704;48.834;8.736;2023-09-19T02:58:30;16.40;99.90
28484;DHT22;15704;48.834;8.736;2023-09-19T03:01:09;16.30;99.90
28484;DHT22;15704;48.834;8.736;2023-09-19T03:03:38;16.30;99.90
28484;DHT22;15704;48.834;8.736;2023-09-19T03:06:07;16.30;99.90
28484;DHT22;15704;48.834;8.736;2023-09-19T03:08:36;16.30;99.90
28484;DHT22;15704;48.834;8.736;2023-09-19T03:11:04;16.20;99.90
28484;DHT22;15704;48.834;8.736;2023-09-19T03:13:32;16.10;99.90
28484;DHT22;15704;48.834;8.736;2023-09-19T03:15:59;16.00;99.90
28484;DHT22;15704;48.834;8.736;2023-09-19T03:18:26;15.90;99.90
28484;DHT22;15704;48.834;8.736;2023-09-19T03:20:54;15.90;99.90
28484;DHT22;15704;48.834;8.736;2023-09-19T03:23:22;15.90;99.90
28484;DHT22;15704;48.834;8.736;2023-09-19T03:25:49;15.80;99.90
28484;DHT22;15704;48.834;8.736;2023-09-19T03:28:17;15.80;99.90
28484;DHT22;15704;48.834;8.736;2023-09-19T03:30:44;15.70;99.90
28484;DHT22;15704;48.834;8.736;2023-09-19T03:33:12;15.70;99.90
28484;DHT22;15704;48.834;8.736;2023-09-19T03:35:39;15.70;99.90
28484;DHT22;15704;48.834;8.736;2023-09-19T03:38:06;15.70;99.90
28484;DHT22;15704;48.834;8.736;2023-09-19T03:40:33;15.70;99.90
28484;DHT22;15704;48.834;8.736;2023-09-19T03:43:03;15.70;99.90
28484;DHT22;15704;48.834;8.736;2023-09-19T03:45:30;15.80;99.90
28484;DHT22;15704;48.834;8.736;2023-09-19T03:47:57;15.80;99.90
28484;DHT22;15704;48.834;8.736;2023-09-19T03:50:24;15.80;99.90
28484;DHT22;15704;48.834;8.736;2023-09-19T03:52:56;15.80;99.90
28484;DHT22;15704;48.834;8.736;2023-09-19T03:55:23;15.80;99.90
28484;DHT22;15704;48.834;8.736;2023-09-19T03:57:50;15.80;99.90
28484;DHT22;15704;48.834;8.736;2023-09-19T04:00:17;15.90;99.90
28484;DHT22;15704;48.834;8.736;2023-09-19T04:02:48;15.80;99.90
28484;DHT22;15704;48.834;8.736;2023-09-19T04:05:15;15.80;99.90
28484;DHT22;15704;48.834;8.736;2023-09-19T04:07:42;15.80;99.90
28484;DHT22;15704;48.834;8.736;2023-09-19T04:10:10;15.80;99.90
28484;DHT22;15704;48.834;8.736;2023-09-19T04:12:38;15.80;99.90
28484;DHT22;15704;48.834;8.736;2023-09-19T04:15:06;15.80;99.90
28484;DHT22;15704;48.834;8.736;2023-09-19T04:17:33;15.90;99.90
28484;DHT22;15704;48.834;8.736;2023-09-19T04:20:00;15.90;99.90
28484;DHT22;15704;48.834;8.736;2023-09-19T04:22:26;15.90;99.90
28484;DHT22;15704;48.834;8.736;2023-09-19T04:24:53;16.00;99.90
28484;DHT22;15704;48.834;8.736;2023-09-19T04:27:20;15.90;99.90
28484;DHT22;15704;48.834;8.736;2023-09-19T04:29:47;15.90;99.90
28484;DHT22;15704;48.834;8.736;2023-09-19T04:32:14;15.80;99.90
28484;DHT22;15704;48.834;8.736;2023-09-19T04:34:42;15.80;99.90
28484;DHT22;15704;48.834;8.736;2023-09-19T04:37:09;15.80;99.90
28484;DHT22;15704;48.834;8.736;2023-09-19T04:39:37;15.70;99.90
28484;DHT22;15704;48.834;8.736;2023-09-19T04:42:05;15.60;99.90
28484;DHT22;15704;48.834;8.736;2023-09-19T04:44:32;15.60;99.90
28484;DHT22;15704;48.834;8.736;2023-09-19T04:46:59;15.50;99.90
28484;DHT22;15704;48.834;8.736;2023-09-19T04:49:27;15.30;99.90
28484;DHT22;15704;48.834;8.736;2023-09-19T04:51:53;15.20;99.90
28484;DHT22;15704;48.834;8.736;2023-09-19T04:54:22;15.10;99.90
28484;DHT22;15704;48.834;8.736;2023-09-19T04:56:49;14.90;99.90
28484;DHT22;15704;48.834;8.736;2023-09-19T04:59:16;14.90;99.90
28484;DHT22;15704;48.834;8.736;2023-09-19T05:01:42;14.80;99.90
28484;DHT22;15704;48.834;8.736;2023-09-19T05:04:09;14.70;99.90
28484;DHT22;15704;48.834;8.736;2023-09-19T05:06:36;14.70;99.90
28484;DHT22;15704;48.834;8.736;2023-09-19T05:09:03;14.70;99.90
28484;DHT22;15704;48.834;8.736;2023-09-19T05:11:32;14.70;99.90
28484;DHT22;15704;48.834;8.736;2023-09-19T05:14:00;14.70;99.90
28484;DHT22;15704;48.834;8.736;2023-09-19T05:16:30;14.70;99.90
28484;DHT22;15704;48.834;8.736;2023-09-19T05:19:01;14.60;99.90
28484;DHT22;15704;48.834;8.736;2023-09-19T05:21:28;14.60;99.90
28484;DHT22;15704;48.834;8.736;2023-09-19T05:23:55;14.60;99.90
28484;DHT22;15704;48.834;8.736;2023-09-19T05:26:22;14.60;99.90
28484;DHT22;15704;48.834;8.736;2023-09-19T05:28:49;14.50;99.90
28484;DHT22;15704;48.834;8.736;2023-09-19T05:31:16;14.40;99.90
28484;DHT22;15704;48.834;8.736;2023-09-19T05:33:43;14.30;99.90
28484;DHT22;15704;48.834;8.736;2023-09-19T05:36:10;14.30;99.90
28484;DHT22;15704;48.834;8.736;2023-09-19T05:38:38;14.30;99.90
28484;DHT22;15704;48.834;8.736;2023-09-19T05:41:08;14.20;99.90
28484;DHT22;15704;48.834;8.736;2023-09-19T05:43:36;14.20;99.90
28484;DHT22;15704;48.834;8.736;2023-09-19T05:46:04;14.20;99.90
28484;DHT22;15704;48.834;8.736;2023-09-19T05:48:31;14.30;99.90
28484;DHT22;15704;48.834;8.736;2023-09-19T05:50:58;14.40;99.90
28484;DHT22;15704;48.834;8.736;2023-09-19T05:53:24;14.30;99.90
28484;DHT22;15704;48.834;8.736;2023-09-19T05:55:52;14.30;99.90
28484;DHT22;15704;48.834;8.736;2023-09-19T05:58:20;14.40;99.90
28484;DHT22;15704;48.834;8.736;2023-09-19T06:00:47;14.40;99.90
28484;DHT22;15704;48.834;8.736;2023-09-19T06:03:15;14.50;99.90
28484;DHT22;15704;48.834;8.736;2023-09-19T06:05:44;14.50;99.90
28484;DHT22;15704;48.834;8.736;2023-09-19T06:08:12;14.60;99.90
28484;DHT22;15704;48.834;8.736;2023-09-19T06:10:39;14.60;99.90
28484;DHT22;15704;48.834;8.736;2023-09-19T06:13:07;14.60;99.90
28484;DHT22;15704;48.834;8.736;2023-09-19T06:15:36;14.70;99.90
28484;DHT22;15704;48.834;8.736;2023-09-19T06:18:03;14.70;99.90
28484;DHT22;15704;48.834;8.736;2023-09-19T06:20:31;14.80;99.90
28484;DHT22;15704;48.834;8.736;2023-09-19T06:23:00;14.80;99.90
28484;DHT22;15704;48.834;8.736;2023-09-19T06:25:29;14.90;99.90
28484;DHT22;15704;48.834;8.736;2023-09-19T06:27:56;14.90;99.90
28484;DHT22;15704;48.834;8.736;2023-09-19T06:30:24;14.90;99.90
28484;DHT22;15704;48.834;8.736;2023-09-19T06:32:56;14.90;99.90
28484;DHT22;15704;48.834;8.736;2023-09-19T06:35:24;15.00;99.90
28484;DHT22;15704;48.834;8.736;2023-09-19T06:37:53;15.00;99.90
28484;DHT22;15704;48.834;8.736;2023-09-19T06:40:20;15.00;99.90
28484;DHT22;15704;48.834;8.736;2023-09-19T06:42:50;15.00;99.90
28484;DHT22;15704;48.834;8.736;2023-09-19T06:45:18;15.00;99.90
28484;DHT22;15704;48.834;8.736;2023-09-19T06:47:46;15.10;99.90
28484;DHT22;15704;48.834;8.736;2023-09-19T06:50:20;15.00;99.90
28484;DHT22;15704;48.834;8.736;2023-09-19T06:52:51;15.10;99.90
28484;DHT22;15704;48.834;8.736;2023-09-19T06:55:19;15.10;99.90
28484;DHT22;15704;48.834;8.736;2023-09-19T06:57:47;15.10;99.90
28484;DHT22;15704;48.834;8.736;2023-09-19T07:00:15;15.20;99.90
28484;DHT22;15704;48.834;8.736;2023-09-19T07:02:54;15.30;99.90
28484;DHT22;15704;48.834;8.736;2023-09-19T07:05:21;15.30;99.90
28484;DHT22;15704;48.834;8.736;2023-09-19T07:07:48;15.40;99.90
28484;DHT22;15704;48.834;8.736;2023-09-19T07:10:16;15.40;99.90
28484;DHT22;15704;48.834;8.736;2023-09-19T07:12:45;15.60;99.90
28484;DHT22;15704;48.834;8.736;2023-09-19T07:15:11;15.70;99.90
28484;DHT22;15704;48.834;8.736;2023-09-19T07:17:38;15.70;99.90
28484;DHT22;15704;48.834;8.736;2023-09-19T07:20:06;15.60;99.90
28484;DHT22;15704;48.834;8.736;2023-09-19T07:22:34;15.70;99.90
28484;DHT22;15704;48.834;8.736;2023-09-19T07:25:01;15.80;99.90
28484;DHT22;15704;48.834;8.736;2023-09-19T07:27:28;15.90;99.90
28484;DHT22;15704;48.834;8.736;2023-09-19T07:29:56;16.10;99.90
28484;DHT22;15704;48.834;8.736;2023-09-19T07:32:22;16.10;99.90
28484;DHT22;15704;48.834;8.736;2023-09-19T07:34:50;16.30;99.90
28484;DHT22;15704;48.834;8.736;2023-09-19T07:37:17;16.30;99.90
28484;DHT22;15704;48.834;8.736;2023-09-19T07:39:44;16.50;99.90
28484;DHT22;15704;48.834;8.736;2023-09-19T07:42:11;16.50;99.90
28484;DHT22;15704;48.834;8.736;2023-09-19T07:44:44;16.70;99.90
28484;DHT22;15704;48.834;8.736;2023-09-19T07:47:14;16.70;99.90
28484;DHT22;15704;48.834;8.736;2023-09-19T07:49:41;16.80;99.90
28484;DHT22;15704;48.834;8.736;2023-09-19T07:52:09;16.80;99.90
28484;DHT22;15704;48.834;8.736;2023-09-19T07:54:36;16.90;99.90
28484;DHT22;15704;48.834;8.736;2023-09-19T07:57:05;16.90;99.90
28484;DHT22;15704;48.834;8.736;2023-09-19T07:59:32;17.10;99.90
28484;DHT22;15704;48.834;8.736;2023-09-19T08:01:59;17.30;99.90
28484;DHT22;15704;48.834;8.736;2023-09-19T08:04:27;17.40;99.90
28484;DHT22;15704;48.834;8.736;2023-09-19T08:06:55;17.50;99.90
28484;DHT22;15704;48.834;8.736;2023-09-19T08:09:22;17.70;99.90
28484;DHT22;15704;48.834;8.736;2023-09-19T08:11:51;17.70;99.90
28484;DHT22;15704;48.834;8.736;2023-09-19T08:14:18;17.80;99.90
28484;DHT22;15704;48.834;8.736;2023-09-19T08:16:45;17.90;99.90
28484;DHT22;15704;48.834;8.736;2023-09-19T08:19:12;17.90;99.90
28484;DHT22;15704;48.834;8.736;2023-09-19T08:21:39;17.80;99.90
28484;DHT22;15704;48.834;8.736;2023-09-19T08:24:05;17.60;99.90
28484;DHT22;15704;48.834;8.736;2023-09-19T08:26:32;17.70;99.90
28484;DHT22;15704;48.834;8.736;2023-09-19T08:28:59;17.80;99.90
28484;DHT22;15704;48.834;8.736;2023-09-19T08:31:32;17.80;99.90
28484;DHT22;15704;48.834;8.736;2023-09-19T08:34:00;17.90;99.90
28484;DHT22;15704;48.834;8.736;2023-09-19T08:36:27;17.80;99.90
28484;DHT22;15704;48.834;8.736;2023-09-19T08:38:54;17.90;99.90
28484;DHT22;15704;48.834;8.736;2023-09-19T08:41:21;18.00;99.90
28484;DHT22;15704;48.834;8.736;2023-09-19T08:43:47;18.20;99.90
28484;DHT22;15704;48.834;8.736;2023-09-19T08:46:16;18.10;99.90
28484;DHT22;15704;48.834;8.736;2023-09-19T08:48:57;18.00;99.90
28484;DHT22;15704;48.834;8.736;2023-09-19T08:51:33;18.30;99.90
28484;DHT22;15704;48.834;8.736;2023-09-19T08:54:07;18.40;99.90
28484;DHT22;15704;48.834;8.736;2023-09-19T08:56:34;18.30;99.90
28484;DHT22;15704;48.834;8.736;2023-09-19T08:59:03;18.20;99.90
28484;DHT22;15704;48.834;8.736;2023-09-19T09:01:31;17.90;99.90
28484;DHT22;15704;48.834;8.736;2023-09-19T09:04:00;18.10;99.90
28484;DHT22;15704;48.834;8.736;2023-09-19T09:06:28;18.30;99.90
28484;DHT22;15704;48.834;8.736;2023-09-19T09:08:55;18.40;99.90
28484;DHT22;15704;48.834;8.736;2023-09-19T09:11:23;18.40;99.90
28484;DHT22;15704;48.834;8.736;2023-09-19T09:13:54;18.40;99.90
28484;DHT22;15704;48.834;8.736;2023-09-19T09:16:21;18.50;99.90
28484;DHT22;15704;48.834;8.736;2023-09-19T09:18:53;18.80;99.90
28484;DHT22;15704;48.834;8.736;2023-09-19T09:21:22;19.00;99.90
28484;DHT22;15704;48.834;8.736;2023-09-19T09:23:51;19.30;99.90
28484;DHT22;15704;48.834;8.736;2023-09-19T09:29:05;19.40;99.90
28484;DHT22;15704;48.834;8.736;2023-09-19T09:31:32;19.90;99.90
28484;DHT22;15704;48.834;8.736;2023-09-19T09:34:00;19.90;99.90
28484;DHT22;15704;48.834;8.736;2023-09-19T09:36:39;19.60;99.90
28484;DHT22;15704;48.834;8.736;2023-09-19T09:39:10;19.50;99.90
28484;DHT22;15704;48.834;8.736;2023-09-19T09:41:44;19.20;99.90
28484;DHT22;15704;48.834;8.736;2023-09-19T09:44:13;19.10;99.90
28484;DHT22;15704;48.834;8.736;2023-09-19T09:46:46;19.00;99.90
28484;DHT22;15704;48.834;8.736;2023-09-19T09:49:27;19.10;99.90
28484;DHT22;15704;48.834;8.736;2023-09-19T09:52:07;19.10;99.90
28484;DHT22;15704;48.834;8.736;2023-09-19T09:54:38;19.20;99.90
28484;DHT22;15704;48.834;8.736;2023-09-19T09:57:09;19.40;99.90
28484;DHT22;15704;48.834;8.736;2023-09-19T09:59:50;19.20;99.90
28484;DHT22;15704;48.834;8.736;2023-09-19T10:02:24;19.20;99.90
28484;DHT22;15704;48.834;8.736;2023-09-19T10:04:53;19.50;99.90
28484;DHT22;15704;48.834;8.736;2023-09-19T10:07:49;19.50;99.90
28484;DHT22;15704;48.834;8.736;2023-09-19T10:13:11;19.30;99.90
28484;DHT22;15704;48.834;8.736;2023-09-19T10:15:50;19.30;99.90
28484;DHT22;15704;48.834;8.736;2023-09-19T10:18:23;19.30;99.90
28484;DHT22;15704;48.834;8.736;2023-09-19T10:20:51;19.40;99.90
28484;DHT22;15704;48.834;8.736;2023-09-19T10:23:19;19.70;99.90
28484;DHT22;15704;48.834;8.736;2023-09-19T10:25:53;19.90;99.90
28484;DHT22;15704;48.834;8.736;2023-09-19T10:28:21;20.20;99.90
28484;DHT22;15704;48.834;8.736;2023-09-19T10:30:51;20.20;99.90
28484;DHT22;15704;48.834;8.736;2023-09-19T10:33:21;19.90;99.90
28484;DHT22;15704;48.834;8.736;2023-09-19T10:35:49;19.40;99.90
28484;DHT22;15704;48.834;8.736;2023-09-19T10:38:24;19.30;99.90
28484;DHT22;15704;48.834;8.736;2023-09-19T10:40:55;19.40;99.90
28484;DHT22;15704;48.834;8.736;2023-09-19T10:43:29;19.70;99.90
28484;DHT22;15704;48.834;8.736;2023-09-19T10:46:02;19.90;99.90
28484;DHT22;15704;48.834;8.736;2023-09-19T10:48:32;19.20;99.90
28484;DHT22;15704;48.834;8.736;2023-09-19T10:51:13;19.30;99.90
28484;DHT22;15704;48.834;8.736;2023-09-19T10:53:54;19.10;99.90
28484;DHT22;15704;48.834;8.736;2023-09-19T10:56:33;19.20;99.90
28484;DHT22;15704;48.834;8.736;2023-09-19T10:59:09;19.20;99.90
28484;DHT22;15704;48.834;8.736;2023-09-19T11:04:33;19.60;99.90
28484;DHT22;15704;48.834;8.736;2023-09-19T11:07:08;19.70;99.90
28484;DHT22;15704;48.834;8.736;2023-09-19T11:26:49;20.20;99.90
28484;DHT22;15704;48.834;8.736;2023-09-19T11:29:29;20.30;99.90
28484;DHT22;15704;48.834;8.736;2023-09-19T11:31:58;20.40;99.90
28484;DHT22;15704;48.834;8.736;2023-09-19T11:40:07;20.10;99.90
28484;DHT22;15704;48.834;8.736;2023-09-19T11:48:24;20.20;99.90
28484;DHT22;15704;48.834;8.736;2023-09-19T11:50:54;20.30;99.90
28484;DHT22;15704;48.834;8.736;2023-09-19T11:53:23;20.60;99.90
28484;DHT22;15704;48.834;8.736;2023-09-19T11:55:50;20.60;99.90
28484;DHT22;15704;48.834;8.736;2023-09-19T11:58:19;20.50;99.90
28484;DHT22;15704;48.834;8.736;2023-09-19T12:00:54;20.70;99.90
28484;DHT22;15704;48.834;8.736;2023-09-19T12:03:24;20.30;99.90
28484;DHT22;15704;48.834;8.736;2023-09-19T12:05:56;20.20;99.90
28484;DHT22;15704;48.834;8.736;2023-09-19T12:08:24;20.00;99.90
28484;DHT22;15704;48.834;8.736;2023-09-19T12:10:53;20.10;99.90
28484;DHT22;15704;48.834;8.736;2023-09-19T12:13:22;20.00;99.90
28484;DHT22;15704;48.834;8.736;2023-09-19T12:15:49;19.80;99.90
28484;DHT22;15704;48.834;8.736;2023-09-19T12:18:29;19.90;99.90
28484;DHT22;15704;48.834;8.736;2023-09-19T12:20:57;19.80;99.90
28484;DHT22;15704;48.834;8.736;2023-09-19T12:23:29;19.90;99.90
28484;DHT22;15704;48.834;8.736;2023-09-19T12:25:56;20.00;99.90
28484;DHT22;15704;48.834;8.736;2023-09-19T12:28:27;20.00;99.90
28484;DHT22;15704;48.834;8.736;2023-09-19T12:31:06;19.90;99.90
28484;DHT22;15704;48.834;8.736;2023-09-19T12:33:34;19.90;99.90
28484;DHT22;15704;48.834;8.736;2023-09-19T12:36:28;20.00;99.90
28484;DHT22;15704;48.834;8.736;2023-09-19T12:38:58;20.10;99.90
28484;DHT22;15704;48.834;8.736;2023-09-19T12:41:26;20.10;99.90
28484;DHT22;15704;48.834;8.736;2023-09-19T12:43:53;20.00;99.90
28484;DHT22;15704;48.834;8.736;2023-09-19T12:46:24;20.00;99.90
28484;DHT22;15704;48.834;8.736;2023-09-19T12:49:14;20.10;99.90
28484;DHT22;15704;48.834;8.736;2023-09-19T12:51:45;20.20;99.90
28484;DHT22;15704;48.834;8.736;2023-09-19T12:54:12;20.20;99.90
28484;DHT22;15704;48.834;8.736;2023-09-19T12:56:42;20.20;99.90
28484;DHT22;15704;48.834;8.736;2023-09-19T12:59:15;20.20;99.90
28484;DHT22;15704;48.834;8.736;2023-09-19T13:01:43;20.30;99.90
28484;DHT22;15704;48.834;8.736;2023-09-19T13:06:49;20.30;99.90
28484;DHT22;15704;48.834;8.736;2023-09-19T13:09:17;20.40;99.90
28484;DHT22;15704;48.834;8.736;2023-09-19T13:11:44;20.50;99.90
28484;DHT22;15704;48.834;8.736;2023-09-19T13:14:23;20.40;99.90
28484;DHT22;15704;48.834;8.736;2023-09-19T13:17:07;20.40;99.90
28484;DHT22;15704;48.834;8.736;2023-09-19T13:19:50;20.30;99.90
28484;DHT22;15704;48.834;8.736;2023-09-19T13:22:44;20.50;99.90
28484;DHT22;15704;48.834;8.736;2023-09-19T13:25:16;20.70;99.90
28484;DHT22;15704;48.834;8.736;2023-09-19T13:27:48;20.50;99.90
28484;DHT22;15704;48.834;8.736;2023-09-19T13:30:18;20.70;99.90
28484;DHT22;15704;48.834;8.736;2023-09-19T13:32:45;20.80;99.90
28484;DHT22;15704;48.834;8.736;2023-09-19T13:35:15;20.70;99.90
28484;DHT22;15704;48.834;8.736;2023-09-19T13:37:42;20.90;99.90
28484;DHT22;15704;48.834;8.736;2023-09-19T13:40:11;20.80;99.90
28484;DHT22;15704;48.834;8.736;2023-09-19T13:42:38;20.80;99.90
28484;DHT22;15704;48.834;8.736;2023-09-19T13:45:06;21.00;99.90
28484;DHT22;15704;48.834;8.736;2023-09-19T13:47:34;21.20;99.90
28484;DHT22;15704;48.834;8.736;2023-09-19T13:50:02;21.10;99.90
28484;DHT22;15704;48.834;8.736;2023-09-19T13:52:31;21.20;99.90
28484;DHT22;15704;48.834;8.736;2023-09-19T13:54:58;21.30;99.10
28484;DHT22;15704;48.834;8.736;2023-09-19T13:57:26;21.30;98.50
28484;DHT22;15704;48.834;8.736;2023-09-19T13:59:53;21.30;98.00
28484;DHT22;15704;48.834;8.736;2023-09-19T14:02:24;21.20;97.70
28484;DHT22;15704;48.834;8.736;2023-09-19T14:04:52;21.30;98.30
28484;DHT22;15704;48.834;8.736;2023-09-19T14:07:19;21.30;97.50
28484;DHT22;15704;48.834;8.736;2023-09-19T14:09:47;21.20;97.50
28484;DHT22;15704;48.834;8.736;2023-09-19T14:12:14;21.00;98.20
28484;DHT22;15704;48.834;8.736;2023-09-19T14:14:41;21.20;98.30
28484;DHT22;15704;48.834;8.736;2023-09-19T14:17:08;21.30;98.10
28484;DHT22;15704;48.834;8.736;2023-09-19T14:19:36;21.30;97.70
28484;DHT22;15704;48.834;8.736;2023-09-19T14:22:03;21.20;98.00
28484;DHT22;15704;48.834;8.736;2023-09-19T14:24:34;21.30;98.00
28484;DHT22;15704;48.834;8.736;2023-09-19T14:27:02;21.30;98.20
28484;DHT22;15704;48.834;8.736;2023-09-19T14:29:32;21.40;97.70
28484;DHT22;15704;48.834;8.736;2023-09-19T14:31:58;21.40;98.30
28484;DHT22;15704;48.834;8.736;2023-09-19T14:34:26;21.30;97.90
28484;DHT22;15704;48.834;8.736;2023-09-19T14:36:53;21.10;98.60
28484;DHT22;15704;48.834;8.736;2023-09-19T14:39:21;21.10;98.30
28484;DHT22;15704;48.834;8.736;2023-09-19T14:41:48;21.20;98.30
28484;DHT22;15704;48.834;8.736;2023-09-19T14:44:15;21.20;98.30
28484;DHT22;15704;48.834;8.736;2023-09-19T14:46:44;21.40;98.30
28484;DHT22;15704;48.834;8.736;2023-09-19T14:49:12;21.50;98.10
28484;DHT22;15704;48.834;8.736;2023-09-19T14:51:38;21.60;98.10
28484;DHT22;15704;48.834;8.736;2023-09-19T14:54:06;21.40;97.40
28484;DHT22;15704;48.834;8.736;2023-09-19T14:56:34;21.30;97.30
28484;DHT22;15704;48.834;8.736;2023-09-19T14:59:01;21.30;97.50
28484;DHT22;15704;48.834;8.736;2023-09-19T15:01:29;21.40;98.70
28484;DHT22;15704;48.834;8.736;2023-09-19T15:03:57;21.40;97.50
28484;DHT22;15704;48.834;8.736;2023-09-19T15:06:24;20.90;98.80
28484;DHT22;15704;48.834;8.736;2023-09-19T15:08:53;20.90;98.90
28484;DHT22;15704;48.834;8.736;2023-09-19T15:11:20;20.90;99.10
28484;DHT22;15704;48.834;8.736;2023-09-19T15:13:48;20.90;98.90
28484;DHT22;15704;48.834;8.736;2023-09-19T15:16:17;20.80;99.00
28484;DHT22;15704;48.834;8.736;2023-09-19T15:18:45;20.70;98.60
28484;DHT22;15704;48.834;8.736;2023-09-19T15:21:14;20.50;99.30
28484;DHT22;15704;48.834;8.736;2023-09-19T15:23:42;20.50;99.40
28484;DHT22;15704;48.834;8.736;2023-09-19T15:26:13;20.40;99.50
28484;DHT22;15704;48.834;8.736;2023-09-19T15:28:40;20.30;99.30
28484;DHT22;15704;48.834;8.736;2023-09-19T15:31:09;20.20;99.70
28484;DHT22;15704;48.834;8.736;2023-09-19T15:33:37;20.30;99.60
28484;DHT22;15704;48.834;8.736;2023-09-19T15:36:04;20.30;99.80
28484;DHT22;15704;48.834;8.736;2023-09-19T15:38:50;20.20;99.90
28484;DHT22;15704;48.834;8.736;2023-09-19T15:41:20;20.20;99.80
28484;DHT22;15704;48.834;8.736;2023-09-19T15:43:47;20.10;99.90
28484;DHT22;15704;48.834;8.736;2023-09-19T15:46:14;20.20;99.90
28484;DHT22;15704;48.834;8.736;2023-09-19T15:48:42;20.30;99.90
28484;DHT22;15704;48.834;8.736;2023-09-19T15:51:09;20.20;99.90
28484;DHT22;15704;48.834;8.736;2023-09-19T15:53:45;20.20;99.90
28484;DHT22;15704;48.834;8.736;2023-09-19T15:56:13;20.20;99.90
28484;DHT22;15704;48.834;8.736;2023-09-19T15:58:41;20.20;99.90
28484;DHT22;15704;48.834;8.736;2023-09-19T16:01:08;20.30;99.90
28484;DHT22;15704;48.834;8.736;2023-09-19T16:03:42;20.30;99.90
28484;DHT22;15704;48.834;8.736;2023-09-19T16:06:13;20.40;99.90
28484;DHT22;15704;48.834;8.736;2023-09-19T16:08:41;20.30;99.90
28484;DHT22;15704;48.834;8.736;2023-09-19T16:11:08;20.30;99.90
28484;DHT22;15704;48.834;8.736;2023-09-19T16:13:40;20.30;99.90
28484;DHT22;15704;48.834;8.736;2023-09-19T16:16:15;20.20;99.90
28484;DHT22;15704;48.834;8.736;2023-09-19T16:18:46;20.20;99.90
28484;DHT22;15704;48.834;8.736;2023-09-19T16:21:16;20.10;99.90
28484;DHT22;15704;48.834;8.736;2023-09-19T16:23:46;20.20;99.90
28484;DHT22;15704;48.834;8.736;2023-09-19T16:26:13;20.20;99.90
28484;DHT22;15704;48.834;8.736;2023-09-19T16:28:40;20.10;99.90
28484;DHT22;15704;48.834;8.736;2023-09-19T16:31:08;20.10;99.90
28484;DHT22;15704;48.834;8.736;2023-09-19T16:33:37;19.90;99.90
28484;DHT22;15704;48.834;8.736;2023-09-19T16:36:15;19.90;99.90
28484;DHT22;15704;48.834;8.736;2023-09-19T16:38:44;19.80;99.90
28484;DHT22;15704;48.834;8.736;2023-09-19T16:41:11;19.70;99.90